createdAt,value
2023-01-12T00:09:32.274Z,5.7
2023-01-12T00:25:14.777Z,5.9
2023-01-12T00:40:57.973Z,7.4
2023-01-12T00:56:40.540Z,4.4
2023-01-12T01:12:23.299Z,4.19
2023-01-12T01:28:06.064Z,2.4
2023-01-12T01:43:48.764Z,3.1
2023-01-12T01:59:31.523Z,2.7
2023-01-12T02:15:13.903Z,2.2
2023-01-12T02:30:57.026Z,2
2023-01-12T02:46:39.611Z,1.7
2023-01-12T03:02:22.339Z,1.9
2023-01-12T03:18:04.789Z,2
2023-01-12T03:33:47.464Z,1.8
2023-01-12T03:49:29.791Z,1.4
2023-01-12T04:05:12.207Z,1.5
2023-01-12T04:20:55.080Z,1.8
2023-01-12T04:36:37.981Z,1.3
2023-01-12T04:52:20.698Z,2.5
2023-01-12T05:08:03.483Z,3.9
2023-01-12T05:23:45.765Z,2.2
2023-01-12T05:39:28.682Z,1.7
2023-01-12T05:55:11.753Z,1
2023-01-12T06:10:54.239Z,1.2
2023-01-12T06:26:36.697Z,1.1
2023-01-12T06:42:19.386Z,1.4
2023-01-12T06:58:01.661Z,1.2
2023-01-12T07:13:43.978Z,1.3
2023-01-12T07:29:26.778Z,1
2023-01-12T07:45:09.489Z,1.2
2023-01-12T08:00:52.487Z,1.3
2023-01-12T08:16:34.752Z,1.3
2023-01-12T08:32:17.898Z,1.3
2023-01-12T08:48:00.861Z,1.2
2023-01-12T09:03:43.507Z,1.1
2023-01-12T09:19:26.438Z,0.8
2023-01-12T09:35:09.056Z,0.9
2023-01-12T09:50:52.039Z,1
2023-01-12T10:06:34.615Z,1.3
2023-01-12T10:22:17.063Z,1.6
2023-01-12T10:37:59.781Z,1.2
2023-01-12T10:53:43.021Z,1.3
2023-01-12T10:54:30.332Z,1.4
2023-01-12T11:10:12.646Z,1.1
2023-01-12T11:25:54.890Z,1.3
2023-01-12T11:41:37.305Z,1.3
2023-01-12T11:57:19.972Z,1.4
2023-01-12T12:13:02.589Z,1.1
2023-01-12T12:28:44.885Z,1
2023-01-12T12:44:27.247Z,0.8
2023-01-12T13:00:10.303Z,0.7
2023-01-12T13:15:52.490Z,0.3
2023-01-12T13:31:34.911Z,0.6
2023-01-12T13:47:17.795Z,0.3
2023-01-12T14:03:00.705Z,0.4
2023-01-12T14:18:44.004Z,3.6
2023-01-12T14:34:26.465Z,0.3
2023-01-12T14:50:09.109Z,0.2
2023-01-12T15:05:51.522Z,0.4
2023-01-12T15:21:34.287Z,0.3
2023-01-12T15:37:17.099Z,1.5
2023-01-12T15:52:59.995Z,0.4
2023-01-12T16:08:42.365Z,0.4
2023-01-12T16:24:25.281Z,0.4
2023-01-12T16:40:08.070Z,0.7
2023-01-12T16:55:51.091Z,0.7
2023-01-12T17:11:33.731Z,0.6
2023-01-12T17:27:16.137Z,0.8
2023-01-12T17:42:58.624Z,0.6
2023-01-12T17:58:41.171Z,1
2023-01-12T18:14:23.488Z,0.7
2023-01-12T18:30:06.567Z,0.6
2023-01-12T18:45:48.825Z,0.9
2023-01-12T19:01:31.655Z,0.7
2023-01-12T19:17:14.194Z,0.4
2023-01-12T19:32:56.604Z,0.5
2023-01-12T19:48:39.462Z,0.5
2023-01-12T20:04:21.939Z,0.5
2023-01-12T20:20:04.410Z,3.6
2023-01-12T20:35:46.837Z,1.2
2023-01-12T20:51:29.117Z,2.5
2023-01-12T21:07:11.640Z,1.9
2023-01-12T21:22:54.596Z,1.5
2023-01-12T21:38:37.284Z,1.1
2023-01-12T21:54:19.877Z,1.1
2023-01-12T22:10:02.324Z,0.6
2023-01-12T22:25:44.864Z,2.4
2023-01-12T22:41:28.051Z,2.2
2023-01-12T22:57:10.483Z,0.6
2023-01-12T23:12:53.284Z,0.7
2023-01-12T23:28:35.791Z,0.8
2023-01-12T23:44:18.843Z,1
